createdAt,value
2017-07-09T00:01:05.079Z,26.03
2017-07-09T00:03:33.510Z,25.30
2017-07-09T00:06:01.188Z,23.63
2017-07-09T00:08:28.796Z,24.63
2017-07-09T00:10:56.395Z,22.67
2017-07-09T00:13:23.955Z,22.30
2017-07-09T00:15:51.543Z,21.97
2017-07-09T00:18:19.365Z,23.00
2017-07-09T00:20:47.663Z,21.73
2017-07-09T00:23:15.262Z,23.67
2017-07-09T00:25:42.861Z,19.43
2017-07-09T00:28:10.447Z,20.80
2017-07-09T00:30:38.028Z,20.80
2017-07-09T00:33:05.628Z,23.77
2017-07-09T00:35:33.990Z,23.20
2017-07-09T00:38:01.581Z,22.83
2017-07-09T00:40:29.185Z,19.60
2017-07-09T00:42:56.754Z,23.27
2017-07-09T00:45:24.353Z,21.87
2017-07-09T00:47:52.682Z,23.30
2017-07-09T00:50:20.268Z,23.60
2017-07-09T00:52:47.836Z,23.47
2017-07-09T00:55:15.534Z,22.73
2017-07-09T00:57:43.120Z,20.97
2017-07-09T01:00:10.681Z,20.43
2017-07-09T01:02:38.275Z,21.40
2017-07-09T01:05:05.847Z,22.73
2017-07-09T01:07:33.539Z,22.20
2017-07-09T01:10:01.868Z,24.33
2017-07-09T01:12:29.423Z,21.73
2017-07-09T01:14:56.990Z,22.43
2017-07-09T01:17:24.757Z,23.10
2017-07-09T01:19:52.351Z,22.33
2017-07-09T01:22:19.915Z,23.27
2017-07-09T01:24:47.639Z,21.10
2017-07-09T01:27:15.189Z,21.17
2017-07-09T01:29:42.832Z,21.93
2017-07-09T01:32:11.151Z,25.63
2017-07-09T01:34:38.718Z,20.60
2017-07-09T01:37:06.345Z,21.20
2017-07-09T01:39:33.896Z,20.90
2017-07-09T01:42:02.247Z,19.80
2017-07-09T01:44:29.993Z,18.17
2017-07-09T01:46:57.570Z,20.40
2017-07-09T01:49:25.149Z,19.47
2017-07-09T01:51:52.732Z,21.33
2017-07-09T01:54:20.345Z,22.80
2017-07-09T01:56:47.916Z,19.90
2017-07-09T01:59:15.491Z,20.43
2017-07-09T02:01:43.087Z,19.53
2017-07-09T02:04:10.701Z,19.07
2017-07-09T02:06:38.286Z,17.47
2017-07-09T02:09:06.714Z,19.43
2017-07-09T02:11:34.267Z,18.90
2017-07-09T02:14:01.878Z,18.00
2017-07-09T02:16:29.449Z,17.90
2017-07-09T02:18:57.023Z,17.37
2017-07-09T02:21:25.354Z,18.63
2017-07-09T02:23:52.934Z,17.33
2017-07-09T02:26:21.114Z,22.10
2017-07-09T02:28:48.690Z,17.70
2017-07-09T02:31:16.265Z,20.17
2017-07-09T02:33:43.829Z,19.00
2017-07-09T02:36:11.412Z,17.53
2017-07-09T02:38:39.748Z,16.93
2017-07-09T02:41:07.378Z,17.07
2017-07-09T02:43:34.938Z,17.40
2017-07-09T02:46:02.515Z,18.83
2017-07-09T02:48:30.174Z,17.63
2017-07-09T02:50:57.782Z,20.53
2017-07-09T02:53:25.341Z,19.93
2017-07-09T02:55:52.932Z,18.60
2017-07-09T02:58:20.514Z,20.60
2017-07-09T03:00:48.064Z,17.17
2017-07-09T03:03:15.740Z,18.23
2017-07-09T03:05:43.411Z,17.40
2017-07-09T03:08:10.970Z,16.57
2017-07-09T03:10:38.546Z,18.70
2017-07-09T03:13:06.126Z,17.37
2017-07-09T03:15:33.694Z,16.47
2017-07-09T03:18:01.258Z,18.77
2017-07-09T03:20:28.834Z,18.27
2017-07-09T03:22:57.158Z,17.77
2017-07-09T03:25:24.748Z,18.00
2017-07-09T03:27:52.501Z,17.27
2017-07-09T03:30:20.075Z,16.47
2017-07-09T03:32:47.663Z,18.87
2017-07-09T03:35:16.024Z,17.40
2017-07-09T03:37:43.603Z,16.40
2017-07-09T03:40:11.189Z,17.43
2017-07-09T03:42:39.520Z,17.57
2017-07-09T03:45:07.142Z,16.87
2017-07-09T03:47:34.711Z,16.67
2017-07-09T03:50:02.306Z,17.53
2017-07-09T03:52:29.904Z,17.50
2017-07-09T03:54:58.241Z,17.07
2017-07-09T03:57:26.583Z,17.63
2017-07-09T03:59:54.166Z,17.47
2017-07-09T04:02:21.738Z,17.80
2017-07-09T04:04:49.300Z,16.03
2017-07-09T04:07:16.912Z,17.97
2017-07-09T04:09:44.473Z,18.83
2017-07-09T04:12:12.062Z,18.47
2017-07-09T04:14:39.640Z,17.13
2017-07-09T04:17:07.382Z,20.40
2017-07-09T04:19:34.955Z,17.47
2017-07-09T04:22:02.531Z,20.07
2017-07-09T04:24:30.091Z,17.07
2017-07-09T04:26:57.851Z,17.20
2017-07-09T04:29:25.583Z,16.57
2017-07-09T04:31:53.146Z,16.20
2017-07-09T04:34:20.711Z,17.70
2017-07-09T04:36:48.336Z,16.23
2017-07-09T04:39:16.680Z,16.40
2017-07-09T04:41:44.265Z,16.73
2017-07-09T04:44:11.840Z,15.93
2017-07-09T04:46:40.194Z,13.50
2017-07-09T04:49:07.888Z,19.90
2017-07-09T04:51:36.233Z,14.07
2017-07-09T04:54:03.803Z,15.30
2017-07-09T04:56:31.389Z,19.20
2017-07-09T04:58:59.714Z,14.97
2017-07-09T05:01:27.278Z,15.50
2017-07-09T05:03:54.852Z,16.37
2017-07-09T05:06:22.585Z,15.40
2017-07-09T05:08:50.167Z,16.10
2017-07-09T05:11:17.744Z,15.60
2017-07-09T05:13:45.300Z,14.57
2017-07-09T05:16:12.906Z,15.63
2017-07-09T05:18:41.369Z,15.27
2017-07-09T05:21:08.960Z,12.33
2017-07-09T05:23:37.367Z,15.73
2017-07-09T05:26:05.032Z,14.80
2017-07-09T05:28:33.165Z,14.23
2017-07-09T05:31:01.511Z,17.40
2017-07-09T05:33:29.065Z,13.30
2017-07-09T05:35:56.740Z,15.00
2017-07-09T05:38:24.361Z,12.40
2017-07-09T05:40:51.969Z,13.07
2017-07-09T05:43:19.554Z,12.93
2017-07-09T05:45:47.892Z,16.53
2017-07-09T05:48:15.480Z,13.50
2017-07-09T05:50:43.079Z,13.70
2017-07-09T05:53:10.656Z,12.63
2017-07-09T05:55:38.275Z,11.73
2017-07-09T05:58:05.866Z,12.47
2017-07-09T06:00:33.431Z,12.90
2017-07-09T06:03:01.002Z,12.83
2017-07-09T06:05:28.583Z,11.80
2017-07-09T06:07:56.171Z,13.37
2017-07-09T06:10:23.949Z,19.77
2017-07-09T06:12:51.555Z,11.43
2017-07-09T06:15:19.126Z,12.10
2017-07-09T06:17:46.749Z,11.77
2017-07-09T06:20:14.298Z,13.60
2017-07-09T06:22:42.112Z,13.67
2017-07-09T06:25:09.690Z,13.60
2017-07-09T06:27:37.279Z,13.20
2017-07-09T06:30:04.849Z,14.00
2017-07-09T06:32:32.984Z,14.27
2017-07-09T06:35:00.578Z,13.30
2017-07-09T06:37:28.231Z,14.27
2017-07-09T06:39:55.843Z,13.00
2017-07-09T06:42:23.439Z,12.00
2017-07-09T06:44:51.058Z,14.90
2017-07-09T06:47:18.672Z,16.63
2017-07-09T06:49:46.265Z,12.17
2017-07-09T06:52:14.012Z,13.67
2017-07-09T06:54:41.639Z,13.07
2017-07-09T06:57:09.231Z,13.03
2017-07-09T06:59:36.818Z,15.37
2017-07-09T07:02:04.390Z,14.87
2017-07-09T07:04:31.961Z,13.97
2017-07-09T07:06:59.547Z,16.43
2017-07-09T07:09:27.240Z,16.53
2017-07-09T07:11:54.832Z,16.73
2017-07-09T07:14:22.567Z,16.27
2017-07-09T07:16:50.171Z,16.60
2017-07-09T07:19:17.783Z,16.40
2017-07-09T07:21:45.358Z,17.17
2017-07-09T07:24:12.948Z,16.20
2017-07-09T07:26:40.530Z,15.60
2017-07-09T07:29:08.143Z,17.83
2017-07-09T07:31:35.752Z,17.30
2017-07-09T07:34:04.073Z,19.57
2017-07-09T07:36:31.676Z,17.57
2017-07-09T07:38:59.254Z,18.53
2017-07-09T07:41:26.937Z,20.50
2017-07-09T07:43:54.529Z,19.43
2017-07-09T07:46:22.098Z,20.27
2017-07-09T07:48:49.687Z,21.40
2017-07-09T07:51:18.043Z,21.17
2017-07-09T07:53:45.681Z,20.00
2017-07-09T07:56:13.246Z,22.10
2017-07-09T07:58:40.852Z,25.87
2017-07-09T08:01:09.182Z,25.83
2017-07-09T08:03:36.799Z,25.20
2017-07-09T08:06:04.608Z,23.90
2017-07-09T08:08:32.187Z,25.00
2017-07-09T08:10:59.794Z,23.70
2017-07-09T08:13:28.148Z,27.20
2017-07-09T08:15:55.816Z,25.37
2017-07-09T08:18:23.398Z,27.70
2017-07-09T08:20:51.732Z,26.00
2017-07-09T08:23:19.338Z,26.27
2017-07-09T08:25:46.914Z,27.03
2017-07-09T08:28:14.475Z,26.60
2017-07-09T08:30:42.806Z,25.87
2017-07-09T08:33:10.426Z,29.60
2017-07-09T08:35:37.983Z,28.70
2017-07-09T08:38:07.547Z,30.20
2017-07-09T08:40:35.156Z,27.27
2017-07-09T08:43:04.477Z,28.23
2017-07-09T08:45:33.142Z,26.93
2017-07-09T08:48:01.029Z,25.10
2017-07-09T08:50:28.665Z,25.40
2017-07-09T08:53:03.535Z,28.47
2017-07-09T08:55:31.173Z,23.70
2017-07-09T08:57:58.760Z,24.93
2017-07-09T09:00:26.353Z,22.20
2017-07-09T09:02:54.000Z,23.97
2017-07-09T09:05:21.584Z,27.70
2017-07-09T09:07:49.148Z,27.07
2017-07-09T09:10:16.764Z,28.47
2017-07-09T09:12:44.472Z,28.17
2017-07-09T09:15:12.061Z,26.03
2017-07-09T09:17:39.636Z,27.37
2017-07-09T09:20:07.202Z,29.77
2017-07-09T09:22:35.551Z,28.93
2017-07-09T09:25:03.226Z,26.30
2017-07-09T09:27:30.802Z,28.90
2017-07-09T09:29:58.413Z,32.03
2017-07-09T09:32:25.972Z,32.20
2017-07-09T09:34:53.574Z,30.20
2017-07-09T09:37:21.191Z,30.07
2017-07-09T09:39:48.758Z,32.17
2017-07-09T09:42:16.334Z,32.27
2017-07-09T09:44:44.436Z,29.83
2017-07-09T09:47:12.006Z,32.27
2017-07-09T09:49:39.621Z,31.70
2017-07-09T09:52:07.190Z,30.23
2017-07-09T09:54:34.857Z,30.83
2017-07-09T09:57:02.545Z,26.93
2017-07-09T09:59:30.152Z,24.87
2017-07-09T10:01:58.515Z,27.63
2017-07-09T10:04:26.134Z,27.63
2017-07-09T10:06:53.730Z,28.97
2017-07-09T10:09:21.476Z,27.80
2017-07-09T10:11:49.115Z,26.40
2017-07-09T10:14:16.748Z,27.00
2017-07-09T10:16:46.157Z,27.00
2017-07-09T10:19:14.732Z,29.13
2017-07-09T10:21:43.384Z,24.77
2017-07-09T10:24:10.974Z,27.50
2017-07-09T10:26:38.559Z,27.57
2017-07-09T10:29:06.886Z,25.83
2017-07-09T10:31:34.526Z,26.10
2017-07-09T10:34:02.130Z,27.50
2017-07-09T10:36:29.718Z,27.90
2017-07-09T10:38:57.606Z,22.27
2017-07-09T10:41:25.166Z,23.20
2017-07-09T10:43:52.754Z,25.37
2017-07-09T10:46:20.357Z,28.10
2017-07-09T10:48:48.687Z,25.43
2017-07-09T10:51:16.284Z,26.87
2017-07-09T10:53:44.623Z,25.80
2017-07-09T10:56:12.235Z,25.40
2017-07-09T10:58:40.674Z,24.43
2017-07-09T11:01:08.364Z,24.70
2017-07-09T11:03:35.956Z,22.43
2017-07-09T11:06:03.548Z,23.03
2017-07-09T11:08:31.155Z,24.27
2017-07-09T11:10:58.730Z,21.70
2017-07-09T11:13:27.094Z,21.87
2017-07-09T11:15:54.660Z,23.13
2017-07-09T11:18:22.230Z,20.23
2017-07-09T11:20:50.591Z,19.70
2017-07-09T11:23:18.215Z,20.43
2017-07-09T11:25:45.831Z,21.30
2017-07-09T11:28:13.413Z,19.90
2017-07-09T11:30:41.832Z,22.63
2017-07-09T11:33:09.412Z,18.63
2017-07-09T11:35:37.026Z,25.10
2017-07-09T11:38:05.357Z,22.50
2017-07-09T11:40:32.972Z,21.40
2017-07-09T11:43:01.319Z,21.17
2017-07-09T11:45:28.888Z,18.80
2017-07-09T11:47:56.712Z,19.33
2017-07-09T11:50:24.302Z,19.03
2017-07-09T11:52:51.868Z,18.50
2017-07-09T11:55:19.673Z,18.13
2017-07-09T11:57:48.108Z,19.47
2017-07-09T12:00:15.702Z,20.33
2017-07-09T12:02:44.044Z,17.90
2017-07-09T12:05:11.640Z,19.77
2017-07-09T12:07:39.357Z,17.30
2017-07-09T12:10:07.123Z,13.77
2017-07-09T12:12:35.624Z,15.43
2017-07-09T12:15:03.211Z,16.97
2017-07-09T12:17:30.806Z,18.10
2017-07-09T12:19:58.420Z,15.60
2017-07-09T12:22:26.096Z,15.80
2017-07-09T12:24:53.701Z,16.90
2017-07-09T12:27:21.289Z,15.40
2017-07-09T12:29:49.659Z,16.17
2017-07-09T12:32:17.381Z,15.83
2017-07-09T12:34:44.980Z,17.20
2017-07-09T12:37:12.552Z,16.57
2017-07-09T12:39:40.124Z,18.40
2017-07-09T12:42:07.720Z,16.20
2017-07-09T12:44:35.331Z,16.47
2017-07-09T12:47:02.895Z,16.83
2017-07-09T12:49:30.455Z,16.13
2017-07-09T12:51:59.004Z,16.37
2017-07-09T12:54:26.570Z,15.93
2017-07-09T12:56:54.170Z,15.43
2017-07-09T12:59:22.487Z,17.00
2017-07-09T13:01:50.128Z,14.97
2017-07-09T13:04:17.766Z,17.60
2017-07-09T13:06:46.119Z,17.17
2017-07-09T13:09:13.714Z,14.97
2017-07-09T13:11:42.073Z,15.60
2017-07-09T13:14:09.687Z,16.20
2017-07-09T13:16:37.335Z,15.53
2017-07-09T13:19:04.897Z,15.90
2017-07-09T13:21:32.580Z,12.77
2017-07-09T13:24:00.217Z,14.53
2017-07-09T13:26:28.611Z,12.67
2017-07-09T13:28:56.257Z,11.87
2017-07-09T13:31:24.890Z,12.07
2017-07-09T13:33:52.483Z,11.57
2017-07-09T13:36:20.063Z,13.47
2017-07-09T13:38:48.516Z,10.80
2017-07-09T13:41:16.100Z,12.40
2017-07-09T13:43:43.669Z,15.90
2017-07-09T13:46:11.271Z,12.93
2017-07-09T13:48:38.853Z,12.30
2017-07-09T13:51:06.431Z,13.03
2017-07-09T13:53:34.024Z,13.20
2017-07-09T13:56:01.601Z,12.43
2017-07-09T13:58:29.941Z,12.77
2017-07-09T14:00:57.554Z,11.27
2017-07-09T14:03:25.122Z,9.83
2017-07-09T14:05:52.713Z,10.83
2017-07-09T14:08:20.314Z,13.03
2017-07-09T14:10:47.899Z,13.77
2017-07-09T14:13:16.223Z,14.67
2017-07-09T14:15:43.916Z,12.80
2017-07-09T14:18:11.479Z,11.10
2017-07-09T14:20:39.062Z,13.10
2017-07-09T14:23:07.389Z,13.80
2017-07-09T14:25:34.995Z,12.50
2017-07-09T14:28:02.661Z,12.80
2017-07-09T14:30:30.248Z,13.10
2017-07-09T14:32:57.822Z,11.83
2017-07-09T14:35:25.410Z,12.10
2017-07-09T14:37:52.996Z,12.93
2017-07-09T14:40:20.555Z,12.03
2017-07-09T14:42:48.138Z,22.37
2017-07-09T14:45:15.711Z,11.70
2017-07-09T14:47:44.089Z,10.77
2017-07-09T14:50:11.835Z,10.97
2017-07-09T14:52:39.424Z,16.93
2017-07-09T14:55:07.072Z,10.03
2017-07-09T14:57:34.691Z,10.20
2017-07-09T15:00:02.276Z,8.90
2017-07-09T15:02:29.861Z,9.93
2017-07-09T15:04:57.462Z,9.00
2017-07-09T15:07:25.026Z,12.80
2017-07-09T15:09:52.710Z,9.80
2017-07-09T15:12:20.329Z,10.70
2017-07-09T15:14:47.924Z,13.40
2017-07-09T15:17:15.545Z,11.27
2017-07-09T15:19:43.131Z,13.00
2017-07-09T15:22:10.713Z,12.40
2017-07-09T15:24:38.281Z,12.00
2017-07-09T15:27:05.873Z,11.80
2017-07-09T15:29:33.461Z,13.57
2017-07-09T15:32:01.028Z,13.90
2017-07-09T15:34:29.557Z,12.67
2017-07-09T15:36:57.127Z,15.03
2017-07-09T15:39:24.704Z,13.77
2017-07-09T15:41:52.356Z,11.73
2017-07-09T15:44:20.219Z,11.60
2017-07-09T15:46:47.783Z,11.33
2017-07-09T15:49:15.372Z,13.60
2017-07-09T15:51:43.060Z,11.67
2017-07-09T15:54:10.636Z,11.73
2017-07-09T15:56:38.986Z,12.03
2017-07-09T15:59:06.566Z,12.30
2017-07-09T16:01:34.155Z,12.70
2017-07-09T16:04:02.522Z,11.77
2017-07-09T16:06:30.843Z,12.13
2017-07-09T16:08:58.418Z,10.37
2017-07-09T16:11:25.977Z,13.80
2017-07-09T16:13:53.730Z,40.47
2017-07-09T16:16:21.305Z,13.90
2017-07-09T16:18:48.906Z,46.57
2017-07-09T16:21:16.609Z,13.53
2017-07-09T16:23:44.256Z,14.37
2017-07-09T16:26:11.868Z,13.77
2017-07-09T16:28:39.426Z,13.27
2017-07-09T16:31:07.047Z,13.80
2017-07-09T16:33:34.614Z,18.17
2017-07-09T16:36:02.190Z,15.50
2017-07-09T16:38:30.681Z,14.80
2017-07-09T16:40:58.248Z,14.03
2017-07-09T16:43:25.819Z,18.27
2017-07-09T16:45:53.427Z,14.40
2017-07-09T16:48:20.974Z,14.57
2017-07-09T16:50:49.228Z,33.30
2017-07-09T16:53:17.577Z,19.20
2017-07-09T16:55:45.175Z,21.37
2017-07-09T16:58:12.773Z,19.30
2017-07-09T17:00:40.356Z,27.97
2017-07-09T17:03:07.932Z,14.63
2017-07-09T17:05:35.502Z,13.80
2017-07-09T17:08:03.072Z,17.87
2017-07-09T17:10:31.408Z,15.30
2017-07-09T17:12:59.022Z,12.40
2017-07-09T17:15:26.615Z,12.27
2017-07-09T17:17:54.172Z,14.00
2017-07-09T17:20:21.900Z,13.07
2017-07-09T17:22:49.486Z,13.57
2017-07-09T17:25:17.810Z,15.30
2017-07-09T17:27:45.440Z,12.67
2017-07-09T17:30:13.755Z,13.73
2017-07-09T17:32:41.330Z,14.17
2017-07-09T17:35:08.908Z,13.00
2017-07-09T17:37:36.471Z,11.37
2017-07-09T17:40:04.067Z,13.70
2017-07-09T17:42:32.407Z,11.70
2017-07-09T17:45:00.002Z,11.67
2017-07-09T17:47:28.341Z,13.83
2017-07-09T17:49:55.971Z,11.33
2017-07-09T17:52:23.560Z,11.23
2017-07-09T17:54:51.137Z,11.90
2017-07-09T17:57:18.722Z,10.63
2017-07-09T17:59:46.298Z,11.83
2017-07-09T18:02:14.636Z,11.77
2017-07-09T18:04:42.240Z,11.07
2017-07-09T18:07:10.566Z,11.00
2017-07-09T18:09:38.133Z,11.47
2017-07-09T18:12:05.735Z,10.60
2017-07-09T18:14:33.297Z,11.77
2017-07-09T18:17:00.873Z,9.33
2017-07-09T18:19:29.182Z,14.13
2017-07-09T18:21:56.769Z,13.97
2017-07-09T18:24:24.360Z,10.27
2017-07-09T18:26:51.963Z,11.13
2017-07-09T18:29:19.572Z,12.17
2017-07-09T18:31:47.149Z,11.63
2017-07-09T18:34:14.738Z,11.37
2017-07-09T18:36:43.855Z,11.73
2017-07-09T18:39:11.456Z,11.30
2017-07-09T18:41:39.039Z,11.13
2017-07-09T18:44:06.751Z,11.57
2017-07-09T18:46:34.341Z,14.30
2017-07-09T18:49:01.920Z,11.80
2017-07-09T18:51:30.021Z,11.90
2017-07-09T18:53:58.390Z,12.80
2017-07-09T18:56:26.062Z,12.90
2017-07-09T18:58:53.649Z,12.03
2017-07-09T19:01:22.005Z,12.07
2017-07-09T19:03:51.131Z,12.27
2017-07-09T19:06:18.716Z,12.20
2017-07-09T19:08:46.339Z,14.00
2017-07-09T19:11:15.272Z,11.53
2017-07-09T19:13:42.897Z,13.57
2017-07-09T19:16:11.733Z,13.67
2017-07-09T19:18:39.492Z,12.60
2017-07-09T19:21:17.710Z,14.80
2017-07-09T19:23:45.408Z,13.83
2017-07-09T19:26:12.982Z,13.17
2017-07-09T19:28:40.605Z,14.60
2017-07-09T19:31:08.231Z,13.67
2017-07-09T19:33:36.955Z,13.73
2017-07-09T19:36:04.703Z,12.73
2017-07-09T19:38:32.794Z,14.40
2017-07-09T19:41:00.421Z,13.90
2017-07-09T19:43:28.326Z,13.77
2017-07-09T19:45:56.828Z,13.33
2017-07-09T19:48:25.480Z,13.13
2017-07-09T19:50:53.246Z,15.00
2017-07-09T19:53:21.602Z,15.97
2017-07-09T19:55:49.270Z,14.33
2017-07-09T19:58:18.485Z,14.43
2017-07-09T20:00:46.152Z,14.50
2017-07-09T20:03:14.489Z,14.40
2017-07-09T20:05:42.877Z,17.30
2017-07-09T20:08:10.528Z,12.83
2017-07-09T20:10:38.143Z,14.17
2017-07-09T20:13:06.736Z,15.40
2017-07-09T20:15:34.341Z,15.10
2017-07-09T20:18:01.939Z,12.43
2017-07-09T20:20:30.287Z,11.63
2017-07-09T20:22:57.843Z,10.03
2017-07-09T20:25:25.426Z,9.70
2017-07-09T20:27:53.007Z,8.60
2017-07-09T20:30:21.500Z,8.37
2017-07-09T20:32:49.856Z,9.13
2017-07-09T20:35:17.490Z,8.73
2017-07-09T20:37:45.114Z,7.43
2017-07-09T20:40:12.875Z,7.23
2017-07-09T20:42:40.471Z,6.60
2017-07-09T20:45:08.026Z,5.33
2017-07-09T20:47:35.607Z,5.37
2017-07-09T20:50:03.193Z,5.53
2017-07-09T20:52:31.561Z,6.63
2017-07-09T20:54:59.895Z,7.50
2017-07-09T20:57:28.467Z,5.80
2017-07-09T20:59:56.096Z,5.00
2017-07-09T21:02:24.487Z,4.40
2017-07-09T21:04:52.185Z,6.43
2017-07-09T21:07:19.802Z,4.87
2017-07-09T21:09:48.181Z,13.97
2017-07-09T21:12:16.536Z,4.80
2017-07-09T21:14:44.146Z,4.93
2017-07-09T21:17:11.775Z,7.30
2017-07-09T21:19:39.347Z,5.47
2017-07-09T21:22:07.687Z,4.73
2017-07-09T21:24:35.286Z,6.57
2017-07-09T21:27:02.851Z,6.07
2017-07-09T21:29:31.186Z,8.17
2017-07-09T21:31:58.774Z,7.10
2017-07-09T21:34:26.318Z,5.03
2017-07-09T21:36:53.972Z,4.73
2017-07-09T21:39:21.542Z,7.60
2017-07-09T21:41:49.193Z,8.37
2017-07-09T21:44:16.779Z,3.80
2017-07-09T21:46:44.399Z,5.23
2017-07-09T21:49:12.029Z,6.40
2017-07-09T21:51:39.599Z,4.40
2017-07-09T21:54:07.966Z,5.23
2017-07-09T21:56:35.571Z,6.53
2017-07-09T21:59:03.154Z,5.03
2017-07-09T22:01:30.742Z,6.20
2017-07-09T22:03:58.412Z,4.63
2017-07-09T22:06:26.072Z,6.17
2017-07-09T22:08:53.651Z,10.50
2017-07-09T22:11:21.502Z,5.13
2017-07-09T22:13:49.102Z,6.20
2017-07-09T22:16:17.440Z,5.30
2017-07-09T22:18:45.023Z,6.67
2017-07-09T22:21:12.599Z,6.30
2017-07-09T22:23:40.955Z,5.87
2017-07-09T22:26:08.528Z,6.30
2017-07-09T22:28:36.095Z,6.30
2017-07-09T22:31:03.734Z,6.60
2017-07-09T22:33:31.295Z,6.63
2017-07-09T22:35:58.971Z,6.87
2017-07-09T22:38:26.573Z,6.70
2017-07-09T22:40:54.951Z,9.73
2017-07-09T22:43:23.345Z,6.67
2017-07-09T22:45:50.920Z,7.30
2017-07-09T22:48:18.611Z,7.87
2017-07-09T22:50:46.225Z,7.50
2017-07-09T22:53:14.544Z,7.73
2017-07-09T22:55:42.146Z,9.00
2017-07-09T22:58:10.500Z,8.77
2017-07-09T23:00:38.075Z,6.90
2017-07-09T23:03:05.638Z,6.50
2017-07-09T23:05:33.198Z,9.07
2017-07-09T23:08:00.769Z,6.93
2017-07-09T23:10:28.356Z,8.77
2017-07-09T23:12:56.686Z,7.30
2017-07-09T23:15:24.243Z,8.20
2017-07-09T23:17:51.795Z,8.20
2017-07-09T23:20:19.371Z,7.30
2017-07-09T23:22:47.017Z,7.90
2017-07-09T23:25:15.532Z,11.70
2017-07-09T23:27:43.221Z,10.60
2017-07-09T23:30:11.751Z,9.83
2017-07-09T23:32:39.330Z,8.90
2017-07-09T23:35:06.911Z,8.70
2017-07-09T23:37:34.501Z,9.17
2017-07-09T23:40:02.813Z,9.50
2017-07-09T23:42:30.550Z,16.27
2017-07-09T23:44:58.883Z,10.17
2017-07-09T23:47:26.444Z,12.90
2017-07-09T23:49:54.024Z,12.10
2017-07-09T23:52:21.593Z,13.53
2017-07-09T23:54:49.293Z,14.80
2017-07-09T23:57:16.854Z,16.53
2017-07-09T23:59:44.423Z,19.83
